createdAt,value
2017-10-19T00:01:16.651Z,21.92
2017-10-19T00:03:45.795Z,21.18
2017-10-19T00:06:14.082Z,21.20
2017-10-19T00:08:42.343Z,20.38
2017-10-19T00:11:10.595Z,17.80
2017-10-19T00:13:40.031Z,20.00
2017-10-19T00:16:10.616Z,23.00
2017-10-19T00:18:49.288Z,20.30
2017-10-19T00:21:17.591Z,21.76
2017-10-19T00:23:45.886Z,19.42
2017-10-19T00:26:14.157Z,17.26
2017-10-19T00:28:43.447Z,22.26
2017-10-19T00:31:11.707Z,20.18
2017-10-19T00:33:53.239Z,23.22
2017-10-19T00:36:21.509Z,17.16
2017-10-19T00:38:49.832Z,22.60
2017-10-19T00:41:18.086Z,18.78
2017-10-19T00:43:46.342Z,23.24
2017-10-19T00:46:14.643Z,22.36
2017-10-19T00:48:59.611Z,18.12
2017-10-19T00:51:27.886Z,24.16
2017-10-19T00:54:19.262Z,18.08
2017-10-19T00:56:47.581Z,19.34
2017-10-19T00:59:32.631Z,23.20
2017-10-19T01:02:00.169Z,24.84
2017-10-19T01:04:41.650Z,17.68
2017-10-19T01:07:11.272Z,20.18
2017-10-19T01:09:39.565Z,19.46
2017-10-19T01:12:08.664Z,20.44
2017-10-19T01:14:54.577Z,23.54
2017-10-19T01:17:22.867Z,27.04
2017-10-19T01:19:55.126Z,23.02
2017-10-19T01:22:23.436Z,21.52
2017-10-19T01:24:56.922Z,28.84
2017-10-19T01:27:25.210Z,21.56
2017-10-19T01:29:57.010Z,21.32
2017-10-19T01:32:25.335Z,24.50
2017-10-19T01:35:00.744Z,19.70
2017-10-19T01:37:29.045Z,25.38
2017-10-19T01:39:59.309Z,18.50
2017-10-19T01:42:27.584Z,24.64
2017-10-19T01:44:56.752Z,24.42
2017-10-19T01:47:25.041Z,20.10
2017-10-19T01:50:03.157Z,24.24
2017-10-19T01:52:31.465Z,19.04
2017-10-19T01:55:03.597Z,25.92
2017-10-19T01:57:31.913Z,26.46
2017-10-19T02:00:00.175Z,23.02
2017-10-19T02:02:28.431Z,18.96
2017-10-19T02:05:13.451Z,22.38
2017-10-19T02:07:41.742Z,27.32
2017-10-19T02:10:11.007Z,22.48
2017-10-19T02:12:40.006Z,21.70
2017-10-19T02:15:33.007Z,21.50
2017-10-19T02:18:01.303Z,24.86
2017-10-19T02:20:35.895Z,21.78
2017-10-19T02:23:04.184Z,22.04
2017-10-19T02:25:33.459Z,27.92
2017-10-19T02:28:01.712Z,21.12
2017-10-19T02:30:37.791Z,24.20
2017-10-19T02:33:06.054Z,21.86
2017-10-19T02:35:42.163Z,21.42
2017-10-19T02:38:10.443Z,21.14
2017-10-19T02:40:39.985Z,21.52
2017-10-19T02:43:21.169Z,22.90
2017-10-19T02:45:49.427Z,22.00
2017-10-19T02:51:17.732Z,20.68
2017-10-19T02:53:46.351Z,25.20
2017-10-19T02:56:29.386Z,22.86
2017-10-19T02:58:57.656Z,20.22
2017-10-19T03:01:35.646Z,17.66
2017-10-19T03:04:03.939Z,18.78
2017-10-19T03:06:32.202Z,18.54
2017-10-19T03:09:00.483Z,22.60
2017-10-19T03:11:28.803Z,24.94
2017-10-19T03:14:20.071Z,23.04
2017-10-19T03:16:48.367Z,24.04
2017-10-19T03:19:17.547Z,23.06
2017-10-19T03:21:45.799Z,26.78
2017-10-19T03:24:24.486Z,23.34
2017-10-19T03:26:52.730Z,23.84
2017-10-19T03:29:21.018Z,21.36
2017-10-19T03:31:49.294Z,25.90
2017-10-19T03:34:37.214Z,27.12
2017-10-19T03:37:05.479Z,31.62
2017-10-19T03:39:46.351Z,27.14
2017-10-19T03:42:14.631Z,24.82
2017-10-19T03:44:50.408Z,25.26
2017-10-19T03:47:18.691Z,24.34
2017-10-19T03:49:46.985Z,24.96
2017-10-19T03:52:15.247Z,27.06
2017-10-19T03:54:44.467Z,26.00
2017-10-19T03:57:12.753Z,22.44
2017-10-19T04:02:40.242Z,23.12
2017-10-19T04:05:09.669Z,20.40
2017-10-19T04:07:45.583Z,22.24
2017-10-19T04:10:13.865Z,22.66
2017-10-19T04:12:46.138Z,27.62
2017-10-19T04:15:14.403Z,22.06
2017-10-19T04:18:07.178Z,23.56
2017-10-19T04:20:35.429Z,21.58
2017-10-19T04:23:03.737Z,24.52
2017-10-19T04:25:31.990Z,25.20
2017-10-19T04:28:02.290Z,21.80
2017-10-19T04:30:30.546Z,20.96
2017-10-19T04:32:58.831Z,25.64
2017-10-19T04:35:29.099Z,28.18
2017-10-19T04:37:57.379Z,24.42
2017-10-19T04:40:27.583Z,27.00
2017-10-19T04:42:55.838Z,30.50
2017-10-19T04:45:41.034Z,22.66
2017-10-19T04:48:10.502Z,26.98
2017-10-19T04:50:40.775Z,23.56
2017-10-19T04:53:09.079Z,28.76
2017-10-19T04:55:43.311Z,25.78
2017-10-19T04:58:11.603Z,22.14
2017-10-19T05:00:40.825Z,22.04
2017-10-19T05:03:09.084Z,26.10
2017-10-19T05:05:37.371Z,28.56
2017-10-19T05:08:05.640Z,24.14
2017-10-19T05:10:34.880Z,26.20
2017-10-19T05:13:03.163Z,23.24
2017-10-19T05:15:34.666Z,26.66
2017-10-19T05:18:02.152Z,24.40
2017-10-19T05:20:40.151Z,22.60
2017-10-19T05:23:09.954Z,24.88
2017-10-19T05:25:57.615Z,21.86
2017-10-19T05:28:25.876Z,22.52
2017-10-19T05:30:54.161Z,22.94
2017-10-19T05:33:22.439Z,20.72
2017-10-19T05:35:55.799Z,24.24
2017-10-19T05:38:24.090Z,24.42
2017-10-19T05:40:52.342Z,20.52
2017-10-19T05:43:20.631Z,25.22
2017-10-19T05:45:54.763Z,27.06
2017-10-19T05:48:23.056Z,22.96
2017-10-19T05:50:51.336Z,23.82
2017-10-19T05:53:19.589Z,28.06
2017-10-19T05:55:47.887Z,23.22
2017-10-19T05:58:16.142Z,23.14
2017-10-19T06:00:44.430Z,24.02
2017-10-19T06:03:12.707Z,25.70
2017-10-19T06:05:51.092Z,24.40
2017-10-19T06:08:19.338Z,23.12
2017-10-19T06:10:46.867Z,24.20
2017-10-19T06:13:15.154Z,20.08
2017-10-19T06:15:59.911Z,23.64
2017-10-19T06:18:28.190Z,24.62
2017-10-19T06:21:07.391Z,21.60
2017-10-19T06:23:35.684Z,23.12
2017-10-19T06:26:03.986Z,24.22
2017-10-19T06:28:32.247Z,23.46
2017-10-19T06:31:01.474Z,23.18
2017-10-19T06:33:29.767Z,23.92
2017-10-19T06:36:05.359Z,28.46
2017-10-19T06:38:33.609Z,30.02
2017-10-19T06:41:04.848Z,24.56
2017-10-19T06:43:33.106Z,27.08
2017-10-19T06:46:02.417Z,27.58
2017-10-19T06:48:30.692Z,28.18
2017-10-19T06:50:58.951Z,30.00
2017-10-19T06:53:27.603Z,29.80
2017-10-19T06:56:02.183Z,29.50
2017-10-19T06:58:30.474Z,40.38
2017-10-19T07:00:58.759Z,29.96
2017-10-19T07:03:27.010Z,31.44
2017-10-19T07:05:55.260Z,28.46
2017-10-19T07:08:23.539Z,33.22
2017-10-19T07:10:51.797Z,37.72
2017-10-19T07:13:20.074Z,36.14
2017-10-19T07:15:48.323Z,35.74
2017-10-19T07:18:16.615Z,29.74
2017-10-19T07:20:44.867Z,33.62
2017-10-19T07:23:13.122Z,34.32
2017-10-19T07:25:41.402Z,34.24
2017-10-19T07:28:09.682Z,44.72
2017-10-19T07:30:38.840Z,32.58
2017-10-19T07:33:08.689Z,30.26
2017-10-19T07:35:39.523Z,33.12
2017-10-19T07:38:09.547Z,29.86
2017-10-19T07:40:40.101Z,36.82
2017-10-19T07:43:14.246Z,35.12
2017-10-19T07:45:42.531Z,28.24
2017-10-19T07:48:10.792Z,39.92
2017-10-19T07:50:40.113Z,38.30
2017-10-19T07:53:14.738Z,42.56
2017-10-19T07:55:43.029Z,41.82
2017-10-19T07:58:12.251Z,41.88
2017-10-19T08:00:40.539Z,38.14
2017-10-19T08:03:09.186Z,34.96
2017-10-19T08:05:37.470Z,43.86
2017-10-19T08:08:05.734Z,33.80
2017-10-19T08:10:34.027Z,38.56
2017-10-19T08:15:57.347Z,37.40
2017-10-19T08:18:25.621Z,28.58
2017-10-19T08:20:53.876Z,27.30
2017-10-19T08:23:22.155Z,32.82
2017-10-19T08:25:52.369Z,32.78
2017-10-19T08:28:20.646Z,31.10
2017-10-19T08:30:54.919Z,27.24
2017-10-19T08:33:23.202Z,32.20
2017-10-19T08:35:53.511Z,27.34
2017-10-19T08:38:21.755Z,28.92
2017-10-19T08:40:59.899Z,29.08
2017-10-19T08:43:28.151Z,26.78
2017-10-19T08:45:56.410Z,26.12
2017-10-19T08:48:26.683Z,32.30
2017-10-19T08:50:54.976Z,34.14
2017-10-19T08:56:16.298Z,35.26
2017-10-19T08:58:43.819Z,33.20
2017-10-19T09:01:12.098Z,32.54
2017-10-19T09:03:42.279Z,40.80
2017-10-19T09:06:10.568Z,32.68
2017-10-19T09:08:39.446Z,32.22
2017-10-19T09:11:10.023Z,30.58
2017-10-19T09:13:40.096Z,30.50
2017-10-19T09:16:09.970Z,32.94
2017-10-19T09:18:40.521Z,28.28
2017-10-19T09:21:10.286Z,32.98
2017-10-19T09:23:39.459Z,29.66
2017-10-19T09:26:10.223Z,31.92
2017-10-19T09:28:39.515Z,23.46
2017-10-19T09:31:10.074Z,22.50
2017-10-19T09:33:39.827Z,26.12
2017-10-19T09:36:09.359Z,31.04
2017-10-19T09:38:38.271Z,24.46
2017-10-19T09:41:06.554Z,32.56
2017-10-19T09:43:34.815Z,30.86
2017-10-19T09:46:03.105Z,23.50
2017-10-19T09:48:31.403Z,28.84
2017-10-19T09:50:59.670Z,34.86
2017-10-19T09:53:27.939Z,30.22
2017-10-19T09:55:56.265Z,32.08
2017-10-19T09:58:24.535Z,31.00
2017-10-19T10:00:52.792Z,26.46
2017-10-19T10:03:21.071Z,25.72
2017-10-19T10:05:49.372Z,24.66
2017-10-19T10:08:17.653Z,30.66
2017-10-19T10:10:45.947Z,27.30
2017-10-19T10:13:14.206Z,23.14
2017-10-19T10:15:42.498Z,20.00
2017-10-19T10:18:10.763Z,24.68
2017-10-19T10:20:39.955Z,25.78
2017-10-19T10:23:10.590Z,27.70
2017-10-19T10:25:39.660Z,23.56
2017-10-19T10:28:08.809Z,29.70
2017-10-19T10:30:37.811Z,24.02
2017-10-19T10:33:06.099Z,18.42
2017-10-19T10:35:34.354Z,23.48
2017-10-19T10:38:02.643Z,20.76
2017-10-19T10:40:30.895Z,19.92
2017-10-19T10:42:59.202Z,20.62
2017-10-19T10:45:27.468Z,18.82
2017-10-19T10:47:55.722Z,17.48
2017-10-19T10:50:24.027Z,22.02
2017-10-19T10:52:52.283Z,20.22
2017-10-19T10:55:20.553Z,15.60
2017-10-19T10:57:48.839Z,18.18
2017-10-19T11:00:17.146Z,15.74
2017-10-19T11:02:45.410Z,21.62
2017-10-19T11:05:13.663Z,18.98
2017-10-19T11:07:41.946Z,22.64
2017-10-19T11:10:11.083Z,18.72
2017-10-19T11:12:39.338Z,16.50
2017-10-19T11:15:09.691Z,21.20
2017-10-19T11:17:39.182Z,16.44
2017-10-19T11:20:07.847Z,19.46
2017-10-19T11:22:37.830Z,19.30
2017-10-19T11:25:07.710Z,14.46
2017-10-19T11:27:37.655Z,15.88
2017-10-19T11:30:05.911Z,23.08
2017-10-19T11:32:34.182Z,17.26
2017-10-19T11:35:02.475Z,22.94
2017-10-19T11:37:30.783Z,20.38
2017-10-19T11:39:59.071Z,16.82
2017-10-19T11:42:27.322Z,17.98
2017-10-19T11:44:55.606Z,15.58
2017-10-19T11:47:23.927Z,14.60
2017-10-19T11:49:52.182Z,15.30
2017-10-19T11:52:23.879Z,15.22
2017-10-19T11:54:52.154Z,19.78
2017-10-19T11:57:20.454Z,15.30
2017-10-19T11:59:48.712Z,19.10
2017-10-19T12:02:16.966Z,17.04
2017-10-19T12:04:45.259Z,19.68
2017-10-19T12:07:13.574Z,18.00
2017-10-19T12:09:41.826Z,16.10
2017-10-19T12:12:11.382Z,17.52
2017-10-19T12:14:40.883Z,16.72
2017-10-19T12:17:10.100Z,14.30
2017-10-19T12:19:44.363Z,12.78
2017-10-19T12:22:12.651Z,13.40
2017-10-19T12:24:40.915Z,13.72
2017-10-19T12:27:09.198Z,13.18
2017-10-19T12:29:37.487Z,13.06
2017-10-19T12:32:05.753Z,13.44
2017-10-19T12:34:34.039Z,12.64
2017-10-19T12:37:02.310Z,16.52
2017-10-19T12:39:30.602Z,15.22
2017-10-19T12:41:58.869Z,12.70
2017-10-19T12:44:38.901Z,15.28
2017-10-19T12:47:08.121Z,12.38
2017-10-19T12:49:37.310Z,12.72
2017-10-19T12:52:05.567Z,18.56
2017-10-19T12:54:33.851Z,12.56
2017-10-19T12:57:20.139Z,13.82
2017-10-19T12:59:48.426Z,11.62
2017-10-19T13:02:16.684Z,13.16
2017-10-19T13:04:44.935Z,16.52
2017-10-19T13:07:12.451Z,11.74
2017-10-19T13:09:40.756Z,12.96
2017-10-19T13:12:10.018Z,16.14
2017-10-19T13:14:39.290Z,16.20
2017-10-19T13:17:08.781Z,19.32
2017-10-19T13:19:38.784Z,14.56
2017-10-19T13:22:07.834Z,15.14
2017-10-19T13:24:36.098Z,14.46
2017-10-19T13:27:04.430Z,19.94
2017-10-19T13:29:32.690Z,13.24
2017-10-19T13:32:00.984Z,12.76
2017-10-19T13:34:29.269Z,13.96
2017-10-19T13:36:57.527Z,14.44
2017-10-19T13:39:25.782Z,13.76
2017-10-19T13:44:48.019Z,19.14
2017-10-19T13:47:16.270Z,16.08
2017-10-19T13:49:44.562Z,15.34
2017-10-19T13:52:12.814Z,14.38
2017-10-19T13:54:41.072Z,14.24
2017-10-19T13:57:09.359Z,23.92
2017-10-19T13:59:54.646Z,18.12
2017-10-19T14:02:22.948Z,13.94
2017-10-19T14:04:51.230Z,16.08
2017-10-19T14:07:19.491Z,24.44
2017-10-19T14:09:47.787Z,13.34
2017-10-19T14:12:16.095Z,13.98
2017-10-19T14:17:51.631Z,14.06
2017-10-19T14:20:19.879Z,20.36
2017-10-19T14:22:48.195Z,13.28
2017-10-19T14:25:16.442Z,14.48
2017-10-19T14:27:44.709Z,12.06
2017-10-19T14:30:12.995Z,12.52
2017-10-19T14:32:41.255Z,12.66
2017-10-19T14:35:10.771Z,12.42
2017-10-19T14:37:41.287Z,10.68
2017-10-19T14:40:10.834Z,10.54
2017-10-19T14:42:40.005Z,11.18
2017-10-19T14:45:18.752Z,13.96
2017-10-19T14:47:47.011Z,17.18
2017-10-19T14:50:17.235Z,13.18
2017-10-19T14:52:45.499Z,17.46
2017-10-19T14:58:23.695Z,11.64
2017-10-19T15:00:51.243Z,10.56
2017-10-19T15:03:19.503Z,10.68
2017-10-19T15:05:47.751Z,10.34
2017-10-19T15:08:17.963Z,10.56
2017-10-19T15:10:46.211Z,11.08
2017-10-19T15:13:14.498Z,17.32
2017-10-19T15:15:42.759Z,11.70
2017-10-19T15:18:11.047Z,11.10
2017-10-19T15:20:39.801Z,19.42
2017-10-19T15:23:11.274Z,10.66
2017-10-19T15:25:40.367Z,10.54
2017-10-19T15:28:09.535Z,11.90
2017-10-19T15:30:40.138Z,12.64
2017-10-19T15:33:09.366Z,11.84
2017-10-19T15:35:40.115Z,10.02
2017-10-19T15:38:08.836Z,13.98
2017-10-19T15:40:38.073Z,10.30
2017-10-19T15:43:06.396Z,13.40
2017-10-19T15:45:34.654Z,11.62
2017-10-19T15:48:07.954Z,11.40
2017-10-19T15:50:36.924Z,11.18
2017-10-19T15:53:05.226Z,16.14
2017-10-19T15:55:33.495Z,19.56
2017-10-19T15:58:01.751Z,11.48
2017-10-19T16:00:30.026Z,10.62
2017-10-19T16:02:58.309Z,12.88
2017-10-19T16:05:26.559Z,15.64
2017-10-19T16:07:54.862Z,15.14
2017-10-19T16:10:23.124Z,12.52
2017-10-19T16:12:51.388Z,11.56
2017-10-19T16:15:19.684Z,16.28
2017-10-19T16:17:47.931Z,14.50
2017-10-19T16:20:16.209Z,15.46
2017-10-19T16:22:44.508Z,14.08
2017-10-19T16:25:12.768Z,12.18
2017-10-19T16:27:41.031Z,14.56
2017-10-19T16:30:08.562Z,14.96
2017-10-19T16:32:37.827Z,12.00
2017-10-19T16:35:06.087Z,16.58
2017-10-19T16:37:33.638Z,15.26
2017-10-19T16:40:01.899Z,21.50
2017-10-19T16:42:30.164Z,14.02
2017-10-19T16:44:58.480Z,14.38
2017-10-19T16:47:26.730Z,31.16
2017-10-19T16:49:54.982Z,18.08
2017-10-19T16:52:23.269Z,17.86
2017-10-19T16:54:51.535Z,14.78
2017-10-19T16:57:27.787Z,14.28
2017-10-19T16:59:56.054Z,17.82
2017-10-19T17:02:40.679Z,16.74
2017-10-19T17:05:10.048Z,16.44
2017-10-19T17:07:38.055Z,14.68
2017-10-19T17:10:07.082Z,16.12
2017-10-19T17:12:35.335Z,19.62
2017-10-19T17:15:03.681Z,21.26
2017-10-19T17:17:31.932Z,16.66
2017-10-19T17:20:00.191Z,14.76
2017-10-19T17:22:31.726Z,38.48
2017-10-19T17:24:59.987Z,25.40
2017-10-19T17:27:37.771Z,13.70
2017-10-19T17:30:11.170Z,15.70
2017-10-19T17:32:39.335Z,13.08
2017-10-19T17:35:13.231Z,18.20
2017-10-19T17:37:41.515Z,14.60
2017-10-19T17:40:10.839Z,19.08
2017-10-19T17:42:40.098Z,20.36
2017-10-19T17:45:10.383Z,14.88
2017-10-19T17:47:39.747Z,17.92
2017-10-19T17:50:14.631Z,13.56
2017-10-19T17:52:42.202Z,15.80
2017-10-19T17:55:10.465Z,15.18
2017-10-19T17:57:39.836Z,16.50
2017-10-19T18:00:17.945Z,14.96
2017-10-19T18:02:46.524Z,14.24
2017-10-19T18:05:16.752Z,16.10
2017-10-19T18:07:45.040Z,14.24
2017-10-19T18:10:13.331Z,14.30
2017-10-19T18:12:41.590Z,16.66
2017-10-19T18:15:10.855Z,15.20
2017-10-19T18:17:39.768Z,17.76
2017-10-19T18:20:12.386Z,17.24
2017-10-19T18:22:40.639Z,18.66
2017-10-19T18:25:09.386Z,17.54
2017-10-19T18:27:38.925Z,25.92
2017-10-19T18:30:07.775Z,15.56
2017-10-19T18:32:36.067Z,19.78
2017-10-19T18:35:04.322Z,23.30
2017-10-19T18:37:32.583Z,17.46
2017-10-19T18:40:00.875Z,18.72
2017-10-19T18:42:29.167Z,15.96
2017-10-19T18:44:57.427Z,13.16
2017-10-19T18:47:25.710Z,12.48
2017-10-19T18:49:53.990Z,16.98
2017-10-19T18:52:22.247Z,15.88
2017-10-19T18:54:51.522Z,17.80
2017-10-19T18:57:19.775Z,21.44
2017-10-19T18:59:48.026Z,15.52
2017-10-19T19:02:16.314Z,15.92
2017-10-19T19:04:52.691Z,15.48
2017-10-19T19:07:20.980Z,16.08
2017-10-19T19:09:49.243Z,19.84
2017-10-19T19:12:17.527Z,16.50
2017-10-19T19:14:49.355Z,21.08
2017-10-19T19:17:17.651Z,15.86
2017-10-19T19:19:45.899Z,14.78
2017-10-19T19:22:14.155Z,21.54
2017-10-19T19:24:43.399Z,18.04
2017-10-19T19:27:10.895Z,18.10
2017-10-19T19:29:38.906Z,22.76
2017-10-19T19:32:06.434Z,16.10
2017-10-19T19:34:34.683Z,18.38
2017-10-19T19:37:02.939Z,13.84
2017-10-19T19:39:32.172Z,13.08
2017-10-19T19:42:00.430Z,14.04
2017-10-19T19:44:28.694Z,16.20
2017-10-19T19:46:56.984Z,15.02
2017-10-19T19:49:27.199Z,14.92
2017-10-19T19:51:55.469Z,14.76
2017-10-19T19:54:40.666Z,17.76
2017-10-19T19:57:08.951Z,15.38
2017-10-19T19:59:51.731Z,14.78
2017-10-19T20:02:19.997Z,22.66
2017-10-19T20:04:50.238Z,18.44
2017-10-19T20:07:18.491Z,16.34
2017-10-19T20:10:05.887Z,21.38
2017-10-19T20:12:34.147Z,17.04
2017-10-19T20:15:02.395Z,17.30
2017-10-19T20:17:29.916Z,18.24
2017-10-19T20:19:58.231Z,16.28
2017-10-19T20:22:26.487Z,21.64
2017-10-19T20:25:05.740Z,20.98
2017-10-19T20:27:34.003Z,26.74
2017-10-19T20:30:04.248Z,16.90
2017-10-19T20:32:31.735Z,21.54
2017-10-19T20:35:00.350Z,21.46
2017-10-19T20:37:28.607Z,18.26
2017-10-19T20:39:56.884Z,15.06
2017-10-19T20:42:25.170Z,21.56
2017-10-19T20:44:53.422Z,17.66
2017-10-19T20:47:21.675Z,18.30
2017-10-19T20:49:49.998Z,17.12
2017-10-19T20:52:18.263Z,19.04
2017-10-19T20:54:46.532Z,17.02
2017-10-19T20:57:14.830Z,25.70
2017-10-19T20:59:43.096Z,18.02
2017-10-19T21:02:11.373Z,15.66
2017-10-19T21:07:32.630Z,15.42
2017-10-19T21:10:00.900Z,19.70
2017-10-19T21:12:32.374Z,15.88
2017-10-19T21:15:00.667Z,15.32
2017-10-19T21:17:35.382Z,19.40
2017-10-19T21:20:03.679Z,17.70
2017-10-19T21:22:36.635Z,16.72
2017-10-19T21:25:04.957Z,18.56
2017-10-19T21:27:33.455Z,18.68
2017-10-19T21:30:01.716Z,16.16
2017-10-19T21:32:31.014Z,14.96
2017-10-19T21:34:59.285Z,17.54
2017-10-19T21:37:30.995Z,16.96
2017-10-19T21:39:59.291Z,19.74
2017-10-19T21:42:27.547Z,16.78
2017-10-19T21:45:13.034Z,18.40
2017-10-19T21:47:41.326Z,16.42
2017-10-19T21:50:30.419Z,17.98
2017-10-19T21:52:57.962Z,14.42
2017-10-19T21:55:29.537Z,17.58
2017-10-19T21:57:57.819Z,19.96
2017-10-19T22:00:25.371Z,19.42
2017-10-19T22:02:53.649Z,21.00
2017-10-19T22:05:22.846Z,17.76
2017-10-19T22:07:51.143Z,18.72
2017-10-19T22:10:42.754Z,18.12
2017-10-19T22:13:11.670Z,13.70
2017-10-19T22:15:40.738Z,19.02
2017-10-19T22:18:11.952Z,18.44
2017-10-19T22:20:41.332Z,15.98
2017-10-19T22:23:28.879Z,19.72
2017-10-19T22:25:57.171Z,17.80
2017-10-19T22:28:24.667Z,22.02
2017-10-19T22:30:52.951Z,29.66
2017-10-19T22:33:20.483Z,19.38
2017-10-19T22:35:48.759Z,18.96
2017-10-19T22:38:23.135Z,17.02
2017-10-19T22:40:51.391Z,21.96
2017-10-19T22:43:24.388Z,20.22
2017-10-19T22:45:52.650Z,19.30
2017-10-19T22:54:17.882Z,14.56
2017-10-19T22:56:46.148Z,15.76
2017-10-19T23:02:10.414Z,22.72
2017-10-19T23:04:39.312Z,20.26
2017-10-19T23:07:10.081Z,16.92
2017-10-19T23:09:39.909Z,18.00
2017-10-19T23:12:10.012Z,15.00
2017-10-19T23:14:38.267Z,16.28
2017-10-19T23:17:10.451Z,15.66
2017-10-19T23:19:39.788Z,13.86
2017-10-19T23:22:28.891Z,15.94
2017-10-19T23:24:57.160Z,15.64
2017-10-19T23:27:28.951Z,15.42
2017-10-19T23:29:57.263Z,17.70
2017-10-19T23:32:40.538Z,17.68
2017-10-19T23:35:09.720Z,13.90
2017-10-19T23:37:43.132Z,16.02
2017-10-19T23:40:11.429Z,14.12
2017-10-19T23:42:40.258Z,11.06
2017-10-19T23:45:18.787Z,12.64
2017-10-19T23:47:47.075Z,20.46
2017-10-19T23:50:16.531Z,12.62
2017-10-19T23:52:44.835Z,12.84
2017-10-19T23:55:25.076Z,16.70
2017-10-19T23:57:53.363Z,14.92
